sensor_id;sensor_type;location;lat;lon;timestamp;P1;durP1;ratioP1;P2;durP2;ratioP2
65469;SDS011;52067;50.710;14.492;2022-09-20T00:03:31;5.20;;;2.20;;
65469;SDS011;52067;50.710;14.492;2022-09-20T00:05:59;2.05;;;1.30;;
65469;SDS011;52067;50.710;14.492;2022-09-20T00:08:26;2.38;;;1.38;;
65469;SDS011;52067;50.710;14.492;2022-09-20T00:10:51;4.50;;;1.60;;
65469;SDS011;52067;50.710;14.492;2022-09-20T00:13:21;2.30;;;1.20;;
65469;SDS011;52067;50.710;14.492;2022-09-20T00:15:46;6.13;;;1.60;;
65469;SDS011;52067;50.710;14.492;2022-09-20T00:18:12;5.20;;;1.40;;
65469;SDS011;52067;50.710;14.492;2022-09-20T00:20:44;6.40;;;1.60;;
65469;SDS011;52067;50.710;14.492;2022-09-20T00:23:11;4.85;;;1.88;;
65469;SDS011;52067;50.710;14.492;2022-09-20T00:25:36;3.72;;;1.90;;
65469;SDS011;52067;50.710;14.492;2022-09-20T00:28:02;5.43;;;1.90;;
65469;SDS011;52067;50.710;14.492;2022-09-20T00:30:27;5.28;;;1.92;;
65469;SDS011;52067;50.710;14.492;2022-09-20T00:32:53;5.00;;;2.42;;
65469;SDS011;52067;50.710;14.492;2022-09-20T00:35:19;4.75;;;2.20;;
65469;SDS011;52067;50.710;14.492;2022-09-20T00:37:44;2.83;;;1.85;;
65469;SDS011;52067;50.710;14.492;2022-09-20T00:40:14;3.63;;;1.98;;
65469;SDS011;52067;50.710;14.492;2022-09-20T00:42:41;3.47;;;1.70;;
65469;SDS011;52067;50.710;14.492;2022-09-20T00:45:10;4.88;;;1.65;;
65469;SDS011;52067;50.710;14.492;2022-09-20T00:50:41;2.05;;;1.60;;
65469;SDS011;52067;50.710;14.492;2022-09-20T00:53:10;2.80;;;1.65;;
65469;SDS011;52067;50.710;14.492;2022-09-20T00:55:48;4.05;;;1.90;;
65469;SDS011;52067;50.710;14.492;2022-09-20T00:58:18;3.00;;;1.55;;
65469;SDS011;52067;50.710;14.492;2022-09-20T01:00:44;2.95;;;1.67;;
65469;SDS011;52067;50.710;14.492;2022-09-20T01:03:11;3.88;;;1.60;;
65469;SDS011;52067;50.710;14.492;2022-09-20T01:05:39;2.35;;;1.50;;
65469;SDS011;52067;50.710;14.492;2022-09-20T01:08:06;4.20;;;1.60;;
65469;SDS011;52067;50.710;14.492;2022-09-20T01:10:33;3.72;;;1.58;;
65469;SDS011;52067;50.710;14.492;2022-09-20T01:12:59;4.20;;;1.60;;
65469;SDS011;52067;50.710;14.492;2022-09-20T01:15:25;2.22;;;1.42;;
65469;SDS011;52067;50.710;14.492;2022-09-20T01:17:53;2.72;;;1.60;;
65469;SDS011;52067;50.710;14.492;2022-09-20T01:20:29;1.75;;;1.50;;
65469;SDS011;52067;50.710;14.492;2022-09-20T01:28:18;2.83;;;1.70;;
65469;SDS011;52067;50.710;14.492;2022-09-20T01:31:02;3.58;;;1.90;;
65469;SDS011;52067;50.710;14.492;2022-09-20T01:33:51;2.27;;;1.63;;
65469;SDS011;52067;50.710;14.492;2022-09-20T01:37:01;3.50;;;1.77;;
65469;SDS011;52067;50.710;14.492;2022-09-20T01:39:10;5.70;;;2.15;;
65469;SDS011;52067;50.710;14.492;2022-09-20T01:44:11;4.97;;;2.30;;
65469;SDS011;52067;50.710;14.492;2022-09-20T01:46:42;3.40;;;2.42;;
65469;SDS011;52067;50.710;14.492;2022-09-20T01:49:24;3.20;;;2.03;;
65469;SDS011;52067;50.710;14.492;2022-09-20T02:04:09;2.67;;;1.67;;
65469;SDS011;52067;50.710;14.492;2022-09-20T02:15:38;3.05;;;1.10;;
65469;SDS011;52067;50.710;14.492;2022-09-20T02:18:31;2.97;;;0.95;;
65469;SDS011;52067;50.710;14.492;2022-09-20T02:26:40;1.30;;;0.80;;
65469;SDS011;52067;50.710;14.492;2022-09-20T02:40:59;3.83;;;0.80;;
65469;SDS011;52067;50.710;14.492;2022-09-20T02:48:52;0.80;;;0.80;;
65469;SDS011;52067;50.710;14.492;2022-09-20T02:51:28;1.17;;;0.90;;
65469;SDS011;52067;50.710;14.492;2022-09-20T02:54:03;1.20;;;0.73;;
65469;SDS011;52067;50.710;14.492;2022-09-20T02:56:50;0.77;;;0.63;;
65469;SDS011;52067;50.710;14.492;2022-09-20T03:07:42;1.30;;;0.70;;
65469;SDS011;52067;50.710;14.492;2022-09-20T03:12:51;0.80;;;0.80;;
65469;SDS011;52067;50.710;14.492;2022-09-20T03:21:50;0.95;;;0.80;;
65469;SDS011;52067;50.710;14.492;2022-09-20T03:32:52;0.70;;;0.70;;
65469;SDS011;52067;50.710;14.492;2022-09-20T03:43:47;3.10;;;0.75;;
65469;SDS011;52067;50.710;14.492;2022-09-20T03:46:29;1.10;;;0.80;;
65469;SDS011;52067;50.710;14.492;2022-09-20T03:54:48;0.90;;;0.65;;
65469;SDS011;52067;50.710;14.492;2022-09-20T04:02:49;0.60;;;0.60;;
65469;SDS011;52067;50.710;14.492;2022-09-20T04:05:31;4.82;;;0.90;;
65469;SDS011;52067;50.710;14.492;2022-09-20T04:18:52;1.10;;;0.90;;
65469;SDS011;52067;50.710;14.492;2022-09-20T04:21:25;1.88;;;0.90;;
65469;SDS011;52067;50.710;14.492;2022-09-20T04:24:44;1.00;;;0.90;;
65469;SDS011;52067;50.710;14.492;2022-09-20T04:30:07;2.05;;;0.90;;
65469;SDS011;52067;50.710;14.492;2022-09-20T04:35:17;1.98;;;1.13;;
65469;SDS011;52067;50.710;14.492;2022-09-20T04:38:21;2.17;;;1.05;;
65469;SDS011;52067;50.710;14.492;2022-09-20T05:00:20;4.18;;;2.00;;
65469;SDS011;52067;50.710;14.492;2022-09-20T05:05:27;3.72;;;2.30;;
65469;SDS011;52067;50.710;14.492;2022-09-20T05:19:15;3.22;;;1.90;;
65469;SDS011;52067;50.710;14.492;2022-09-20T05:25:05;2.78;;;1.75;;
65469;SDS011;52067;50.710;14.492;2022-09-20T05:28:40;1.85;;;1.50;;
65469;SDS011;52067;50.710;14.492;2022-09-20T05:30:48;2.17;;;1.60;;
65469;SDS011;52067;50.710;14.492;2022-09-20T05:36:27;2.30;;;1.58;;
65469;SDS011;52067;50.710;14.492;2022-09-20T05:39:00;2.53;;;1.35;;
65469;SDS011;52067;50.710;14.492;2022-09-20T05:41:50;1.88;;;1.27;;
65469;SDS011;52067;50.710;14.492;2022-09-20T05:52:02;3.00;;;1.20;;
65469;SDS011;52067;50.710;14.492;2022-09-20T06:00:26;1.77;;;1.30;;
65469;SDS011;52067;50.710;14.492;2022-09-20T06:03:18;2.60;;;1.15;;
65469;SDS011;52067;50.710;14.492;2022-09-20T06:05:58;2.00;;;1.40;;
65469;SDS011;52067;50.710;14.492;2022-09-20T06:16:46;1.92;;;1.42;;
65469;SDS011;52067;50.710;14.492;2022-09-20T06:21:51;3.78;;;1.70;;
65469;SDS011;52067;50.710;14.492;2022-09-20T06:24:30;2.10;;;1.38;;
65469;SDS011;52067;50.710;14.492;2022-09-20T06:27:18;3.60;;;1.60;;
65469;SDS011;52067;50.710;14.492;2022-09-20T06:29:50;2.22;;;1.67;;
65469;SDS011;52067;50.710;14.492;2022-09-20T06:32:18;2.53;;;1.67;;
65469;SDS011;52067;50.710;14.492;2022-09-20T06:34:44;2.75;;;1.90;;
65469;SDS011;52067;50.710;14.492;2022-09-20T06:40:05;2.17;;;1.60;;
65469;SDS011;52067;50.710;14.492;2022-09-20T06:43:11;3.35;;;1.60;;
65469;SDS011;52067;50.710;14.492;2022-09-20T06:45:39;1.95;;;1.50;;
65469;SDS011;52067;50.710;14.492;2022-09-20T06:48:05;6.60;;;1.92;;
65469;SDS011;52067;50.710;14.492;2022-09-20T06:50:33;2.22;;;1.40;;
65469;SDS011;52067;50.710;14.492;2022-09-20T06:53:00;4.78;;;1.83;;
65469;SDS011;52067;50.710;14.492;2022-09-20T06:55:28;2.60;;;1.55;;
65469;SDS011;52067;50.710;14.492;2022-09-20T06:57:56;4.63;;;1.80;;
65469;SDS011;52067;50.710;14.492;2022-09-20T07:00:21;2.15;;;1.70;;
65469;SDS011;52067;50.710;14.492;2022-09-20T07:02:47;7.13;;;1.98;;
65469;SDS011;52067;50.710;14.492;2022-09-20T07:05:16;5.93;;;1.95;;
65469;SDS011;52067;50.710;14.492;2022-09-20T07:07:45;4.05;;;1.80;;
65469;SDS011;52067;50.710;14.492;2022-09-20T07:10:11;5.45;;;1.88;;
65469;SDS011;52067;50.710;14.492;2022-09-20T07:12:37;5.63;;;2.60;;
65469;SDS011;52067;50.710;14.492;2022-09-20T07:15:03;5.20;;;1.80;;
65469;SDS011;52067;50.710;14.492;2022-09-20T07:17:30;5.68;;;1.88;;
65469;SDS011;52067;50.710;14.492;2022-09-20T07:19:56;3.92;;;1.80;;
65469;SDS011;52067;50.710;14.492;2022-09-20T07:22:21;3.88;;;1.60;;
65469;SDS011;52067;50.710;14.492;2022-09-20T07:24:46;3.22;;;1.80;;
65469;SDS011;52067;50.710;14.492;2022-09-20T07:27:12;5.93;;;2.15;;
65469;SDS011;52067;50.710;14.492;2022-09-20T07:29:38;6.00;;;2.00;;
65469;SDS011;52067;50.710;14.492;2022-09-20T07:32:05;3.28;;;1.77;;
65469;SDS011;52067;50.710;14.492;2022-09-20T07:34:30;2.47;;;1.52;;
65469;SDS011;52067;50.710;14.492;2022-09-20T07:36:56;4.13;;;2.10;;
65469;SDS011;52067;50.710;14.492;2022-09-20T07:39:23;2.42;;;1.70;;
65469;SDS011;52067;50.710;14.492;2022-09-20T07:41:49;3.13;;;1.70;;
65469;SDS011;52067;50.710;14.492;2022-09-20T07:44:15;2.58;;;1.58;;
65469;SDS011;52067;50.710;14.492;2022-09-20T07:46:52;1.77;;;1.30;;
65469;SDS011;52067;50.710;14.492;2022-09-20T07:49:19;2.97;;;1.60;;
65469;SDS011;52067;50.710;14.492;2022-09-20T07:51:45;6.55;;;1.80;;
65469;SDS011;52067;50.710;14.492;2022-09-20T07:54:11;4.45;;;2.17;;
65469;SDS011;52067;50.710;14.492;2022-09-20T07:56:37;3.67;;;2.20;;
65469;SDS011;52067;50.710;14.492;2022-09-20T07:59:02;3.88;;;2.25;;
65469;SDS011;52067;50.710;14.492;2022-09-20T08:01:28;6.22;;;2.10;;
65469;SDS011;52067;50.710;14.492;2022-09-20T08:03:53;3.22;;;2.03;;
65469;SDS011;52067;50.710;14.492;2022-09-20T08:06:19;6.25;;;2.33;;
65469;SDS011;52067;50.710;14.492;2022-09-20T08:08:45;3.40;;;1.80;;
65469;SDS011;52067;50.710;14.492;2022-09-20T08:11:15;3.10;;;1.90;;
65469;SDS011;52067;50.710;14.492;2022-09-20T08:13:44;3.70;;;2.20;;
65469;SDS011;52067;50.710;14.492;2022-09-20T08:16:12;4.40;;;2.00;;
65469;SDS011;52067;50.710;14.492;2022-09-20T08:18:39;4.10;;;2.30;;
65469;SDS011;52067;50.710;14.492;2022-09-20T08:21:10;6.25;;;2.60;;
65469;SDS011;52067;50.710;14.492;2022-09-20T08:23:36;4.95;;;2.40;;
65469;SDS011;52067;50.710;14.492;2022-09-20T08:26:04;9.13;;;2.70;;
65469;SDS011;52067;50.710;14.492;2022-09-20T08:28:31;6.90;;;2.38;;
65469;SDS011;52067;50.710;14.492;2022-09-20T08:31:16;11.80;;;2.90;;
65469;SDS011;52067;50.710;14.492;2022-09-20T08:33:43;4.03;;;2.25;;
65469;SDS011;52067;50.710;14.492;2022-09-20T08:36:28;6.40;;;2.38;;
65469;SDS011;52067;50.710;14.492;2022-09-20T08:38:55;4.05;;;2.35;;
65469;SDS011;52067;50.710;14.492;2022-09-20T08:41:23;5.85;;;2.40;;
65469;SDS011;52067;50.710;14.492;2022-09-20T08:46:40;5.35;;;3.03;;
65469;SDS011;52067;50.710;14.492;2022-09-20T08:49:10;3.80;;;2.67;;
65469;SDS011;52067;50.710;14.492;2022-09-20T08:51:43;6.85;;;2.95;;
65469;SDS011;52067;50.710;14.492;2022-09-20T08:54:13;6.35;;;2.90;;
65469;SDS011;52067;50.710;14.492;2022-09-20T08:56:40;4.90;;;2.75;;
65469;SDS011;52067;50.710;14.492;2022-09-20T08:59:07;7.22;;;2.92;;
65469;SDS011;52067;50.710;14.492;2022-09-20T09:01:38;6.65;;;2.80;;
65469;SDS011;52067;50.710;14.492;2022-09-20T09:04:10;5.93;;;3.65;;
65469;SDS011;52067;50.710;14.492;2022-09-20T09:06:38;10.57;;;3.97;;
65469;SDS011;52067;50.710;14.492;2022-09-20T09:09:04;9.38;;;3.60;;
65469;SDS011;52067;50.710;14.492;2022-09-20T09:11:30;7.70;;;3.15;;
65469;SDS011;52067;50.710;14.492;2022-09-20T09:14:04;7.25;;;3.17;;
65469;SDS011;52067;50.710;14.492;2022-09-20T09:16:55;5.03;;;2.70;;
65469;SDS011;52067;50.710;14.492;2022-09-20T09:21:57;4.40;;;2.45;;
65469;SDS011;52067;50.710;14.492;2022-09-20T09:24:26;5.85;;;2.80;;
65469;SDS011;52067;50.710;14.492;2022-09-20T09:27:12;5.03;;;2.50;;
65469;SDS011;52067;50.710;14.492;2022-09-20T09:29:50;4.75;;;2.70;;
65469;SDS011;52067;50.710;14.492;2022-09-20T09:32:24;6.07;;;2.92;;
65469;SDS011;52067;50.710;14.492;2022-09-20T09:34:55;6.72;;;3.15;;
65469;SDS011;52067;50.710;14.492;2022-09-20T09:37:28;4.47;;;3.00;;
65469;SDS011;52067;50.710;14.492;2022-09-20T09:40:14;5.43;;;3.40;;
65469;SDS011;52067;50.710;14.492;2022-09-20T09:42:49;8.77;;;3.72;;
65469;SDS011;52067;50.710;14.492;2022-09-20T09:45:27;6.82;;;3.67;;
65469;SDS011;52067;50.710;14.492;2022-09-20T09:47:53;6.20;;;3.88;;
65469;SDS011;52067;50.710;14.492;2022-09-20T09:50:21;7.80;;;3.72;;
65469;SDS011;52067;50.710;14.492;2022-09-20T09:52:58;7.28;;;3.90;;
65469;SDS011;52067;50.710;14.492;2022-09-20T09:58:26;5.90;;;3.00;;
65469;SDS011;52067;50.710;14.492;2022-09-20T10:01:03;5.18;;;2.75;;
65469;SDS011;52067;50.710;14.492;2022-09-20T10:06:17;6.70;;;2.92;;
65469;SDS011;52067;50.710;14.492;2022-09-20T10:12:26;6.95;;;3.08;;
65469;SDS011;52067;50.710;14.492;2022-09-20T10:14:41;4.88;;;3.03;;
65469;SDS011;52067;50.710;14.492;2022-09-20T10:30:43;3.05;;;1.40;;
65469;SDS011;52067;50.710;14.492;2022-09-20T10:33:30;2.47;;;1.30;;
65469;SDS011;52067;50.710;14.492;2022-09-20T10:41:50;2.22;;;1.38;;
65469;SDS011;52067;50.710;14.492;2022-09-20T10:44:50;2.05;;;1.30;;
65469;SDS011;52067;50.710;14.492;2022-09-20T10:47:22;2.20;;;1.43;;
65469;SDS011;52067;50.710;14.492;2022-09-20T10:52:59;3.70;;;1.77;;
65469;SDS011;52067;50.710;14.492;2022-09-20T10:58:29;3.83;;;1.85;;
65469;SDS011;52067;50.710;14.492;2022-09-20T11:09:17;4.25;;;2.50;;
65469;SDS011;52067;50.710;14.492;2022-09-20T11:11:47;5.40;;;3.10;;
65469;SDS011;52067;50.710;14.492;2022-09-20T11:14:40;7.97;;;3.30;;
65469;SDS011;52067;50.710;14.492;2022-09-20T11:17:14;4.78;;;3.10;;
65469;SDS011;52067;50.710;14.492;2022-09-20T11:22:39;7.47;;;3.47;;
65469;SDS011;52067;50.710;14.492;2022-09-20T11:25:37;8.60;;;3.55;;
65469;SDS011;52067;50.710;14.492;2022-09-20T11:33:22;5.35;;;3.00;;
65469;SDS011;52067;50.710;14.492;2022-09-20T11:35:54;7.72;;;3.17;;
65469;SDS011;52067;50.710;14.492;2022-09-20T11:38:40;5.60;;;2.90;;
65469;SDS011;52067;50.710;14.492;2022-09-20T11:41:14;4.45;;;2.85;;
65469;SDS011;52067;50.710;14.492;2022-09-20T11:43:49;7.25;;;3.00;;
65469;SDS011;52067;50.710;14.492;2022-09-20T11:46:21;4.00;;;2.67;;
65469;SDS011;52067;50.710;14.492;2022-09-20T11:48:55;8.07;;;2.70;;
65469;SDS011;52067;50.710;14.492;2022-09-20T11:56:36;5.07;;;2.33;;
65469;SDS011;52067;50.710;14.492;2022-09-20T11:59:04;4.38;;;2.40;;
65469;SDS011;52067;50.710;14.492;2022-09-20T12:01:33;4.68;;;2.05;;
65469;SDS011;52067;50.710;14.492;2022-09-20T12:04:11;4.18;;;2.20;;
65469;SDS011;52067;50.710;14.492;2022-09-20T12:06:58;2.88;;;1.60;;
65469;SDS011;52067;50.710;14.492;2022-09-20T12:09:39;4.40;;;1.70;;
65469;SDS011;52067;50.710;14.492;2022-09-20T12:14:55;2.92;;;1.50;;
65469;SDS011;52067;50.710;14.492;2022-09-20T12:26:03;1.63;;;1.20;;
65469;SDS011;52067;50.710;14.492;2022-09-20T12:28:45;1.85;;;1.13;;
65469;SDS011;52067;50.710;14.492;2022-09-20T12:36:24;1.48;;;1.10;;
65469;SDS011;52067;50.710;14.492;2022-09-20T12:39:04;4.88;;;2.92;;
65469;SDS011;52067;50.710;14.492;2022-09-20T12:41:55;1.92;;;1.30;;
65469;SDS011;52067;50.710;14.492;2022-09-20T12:49:42;0.70;;;0.70;;
65469;SDS011;52067;50.710;14.492;2022-09-20T12:57:56;2.60;;;1.00;;
65469;SDS011;52067;50.710;14.492;2022-09-20T13:00:37;1.30;;;0.80;;
65469;SDS011;52067;50.710;14.492;2022-09-20T13:08:29;3.63;;;1.80;;
65469;SDS011;52067;50.710;14.492;2022-09-20T13:16:20;1.75;;;1.10;;
65469;SDS011;52067;50.710;14.492;2022-09-20T13:21:35;2.88;;;1.30;;
65469;SDS011;52067;50.710;14.492;2022-09-20T13:24:04;2.90;;;1.55;;
65469;SDS011;52067;50.710;14.492;2022-09-20T13:26:33;1.20;;;1.00;;
65469;SDS011;52067;50.710;14.492;2022-09-20T13:29:03;1.55;;;0.90;;
65469;SDS011;52067;50.710;14.492;2022-09-20T13:31:32;1.15;;;1.00;;
65469;SDS011;52067;50.710;14.492;2022-09-20T13:36:58;5.40;;;2.67;;
65469;SDS011;52067;50.710;14.492;2022-09-20T13:39:26;4.13;;;2.63;;
65469;SDS011;52067;50.710;14.492;2022-09-20T13:41:59;3.88;;;2.13;;
65469;SDS011;52067;50.710;14.492;2022-09-20T13:44:36;4.72;;;2.15;;
65469;SDS011;52067;50.710;14.492;2022-09-20T13:47:18;3.90;;;2.20;;
65469;SDS011;52067;50.710;14.492;2022-09-20T13:49:46;5.07;;;2.10;;
65469;SDS011;52067;50.710;14.492;2022-09-20T13:52:19;2.47;;;1.70;;
65469;SDS011;52067;50.710;14.492;2022-09-20T13:54:50;4.40;;;1.77;;
65469;SDS011;52067;50.710;14.492;2022-09-20T13:57:18;2.83;;;1.75;;
65469;SDS011;52067;50.710;14.492;2022-09-20T13:59:46;2.75;;;1.40;;
65469;SDS011;52067;50.710;14.492;2022-09-20T14:02:23;3.13;;;1.40;;
65469;SDS011;52067;50.710;14.492;2022-09-20T14:04:52;2.33;;;1.42;;
65469;SDS011;52067;50.710;14.492;2022-09-20T14:07:20;3.92;;;1.65;;
65469;SDS011;52067;50.710;14.492;2022-09-20T14:09:49;4.78;;;2.00;;
65469;SDS011;52067;50.710;14.492;2022-09-20T14:12:15;3.03;;;1.80;;
65469;SDS011;52067;50.710;14.492;2022-09-20T14:14:41;3.08;;;1.73;;
65469;SDS011;52067;50.710;14.492;2022-09-20T14:17:10;3.15;;;1.90;;
65469;SDS011;52067;50.710;14.492;2022-09-20T14:19:40;3.72;;;2.30;;
65469;SDS011;52067;50.710;14.492;2022-09-20T14:22:07;2.95;;;1.80;;
65469;SDS011;52067;50.710;14.492;2022-09-20T14:24:41;6.60;;;2.10;;
65469;SDS011;52067;50.710;14.492;2022-09-20T14:27:22;7.53;;;3.85;;
65469;SDS011;52067;50.710;14.492;2022-09-20T14:29:48;8.25;;;4.82;;
65469;SDS011;52067;50.710;14.492;2022-09-20T14:40:40;8.05;;;4.43;;
65469;SDS011;52067;50.710;14.492;2022-09-20T14:42:59;6.05;;;3.80;;
65469;SDS011;52067;50.710;14.492;2022-09-20T14:48:45;4.18;;;2.88;;
65469;SDS011;52067;50.710;14.492;2022-09-20T14:56:34;6.55;;;3.80;;
65469;SDS011;52067;50.710;14.492;2022-09-20T14:59:02;4.47;;;3.10;;
65469;SDS011;52067;50.710;14.492;2022-09-20T15:01:38;11.25;;;4.03;;
65469;SDS011;52067;50.710;14.492;2022-09-20T15:04:16;6.97;;;2.72;;
65469;SDS011;52067;50.710;14.492;2022-09-20T15:06:45;5.53;;;3.40;;
65469;SDS011;52067;50.710;14.492;2022-09-20T15:09:11;7.35;;;3.55;;
65469;SDS011;52067;50.710;14.492;2022-09-20T15:11:37;12.30;;;4.32;;
65469;SDS011;52067;50.710;14.492;2022-09-20T15:14:04;8.32;;;3.97;;
65469;SDS011;52067;50.710;14.492;2022-09-20T15:16:30;64.03;;;19.70;;
65469;SDS011;52067;50.710;14.492;2022-09-20T15:18:57;154.65;;;46.80;;
65469;SDS011;52067;50.710;14.492;2022-09-20T15:21:23;37.70;;;13.50;;
65469;SDS011;52067;50.710;14.492;2022-09-20T15:23:48;40.20;;;14.10;;
65469;SDS011;52067;50.710;14.492;2022-09-20T15:26:14;6.88;;;2.67;;
65469;SDS011;52067;50.710;14.492;2022-09-20T15:28:40;4.95;;;2.30;;
65469;SDS011;52067;50.710;14.492;2022-09-20T15:31:05;3.90;;;1.70;;
65469;SDS011;52067;50.710;14.492;2022-09-20T15:33:31;3.92;;;1.92;;
65469;SDS011;52067;50.710;14.492;2022-09-20T15:35:57;4.97;;;1.80;;
65469;SDS011;52067;50.710;14.492;2022-09-20T15:38:22;5.22;;;1.85;;
65469;SDS011;52067;50.710;14.492;2022-09-20T15:40:50;3.30;;;1.70;;
65469;SDS011;52067;50.710;14.492;2022-09-20T15:43:20;3.40;;;1.80;;
65469;SDS011;52067;50.710;14.492;2022-09-20T15:45:48;11.07;;;3.42;;
65469;SDS011;52067;50.710;14.492;2022-09-20T15:48:19;3.85;;;2.13;;
65469;SDS011;52067;50.710;14.492;2022-09-20T15:53:22;3.38;;;1.90;;
65469;SDS011;52067;50.710;14.492;2022-09-20T15:55:49;3.00;;;1.75;;
65469;SDS011;52067;50.710;14.492;2022-09-20T15:58:14;4.22;;;1.83;;
65469;SDS011;52067;50.710;14.492;2022-09-20T16:00:39;2.00;;;1.05;;
65469;SDS011;52067;50.710;14.492;2022-09-20T16:03:06;4.25;;;1.67;;
65469;SDS011;52067;50.710;14.492;2022-09-20T16:05:31;2.92;;;1.40;;
65469;SDS011;52067;50.710;14.492;2022-09-20T16:07:56;4.05;;;1.60;;
65469;SDS011;52067;50.710;14.492;2022-09-20T16:10:25;4.97;;;2.10;;
65469;SDS011;52067;50.710;14.492;2022-09-20T16:12:50;6.20;;;1.77;;
65469;SDS011;52067;50.710;14.492;2022-09-20T16:15:15;5.18;;;2.28;;
65469;SDS011;52067;50.710;14.492;2022-09-20T16:17:41;4.63;;;1.90;;
65469;SDS011;52067;50.710;14.492;2022-09-20T16:20:24;3.60;;;1.80;;
65469;SDS011;52067;50.710;14.492;2022-09-20T16:22:50;4.90;;;2.38;;
65469;SDS011;52067;50.710;14.492;2022-09-20T16:25:15;4.45;;;2.20;;
65469;SDS011;52067;50.710;14.492;2022-09-20T16:27:41;3.83;;;1.85;;
65469;SDS011;52067;50.710;14.492;2022-09-20T16:30:06;2.75;;;1.60;;
65469;SDS011;52067;50.710;14.492;2022-09-20T16:32:32;3.35;;;1.50;;
65469;SDS011;52067;50.710;14.492;2022-09-20T16:34:58;4.53;;;1.70;;
65469;SDS011;52067;50.710;14.492;2022-09-20T16:37:27;2.15;;;1.30;;
65469;SDS011;52067;50.710;14.492;2022-09-20T16:39:57;4.50;;;1.90;;
65469;SDS011;52067;50.710;14.492;2022-09-20T16:42:22;2.20;;;1.40;;
65469;SDS011;52067;50.710;14.492;2022-09-20T16:44:48;2.75;;;1.50;;
65469;SDS011;52067;50.710;14.492;2022-09-20T16:47:14;3.17;;;1.52;;
65469;SDS011;52067;50.710;14.492;2022-09-20T16:49:46;2.10;;;1.35;;
65469;SDS011;52067;50.710;14.492;2022-09-20T16:52:12;5.45;;;1.52;;
65469;SDS011;52067;50.710;14.492;2022-09-20T16:54:38;3.22;;;1.40;;
65469;SDS011;52067;50.710;14.492;2022-09-20T16:57:03;3.28;;;1.67;;
65469;SDS011;52067;50.710;14.492;2022-09-20T16:59:29;2.83;;;1.30;;
65469;SDS011;52067;50.710;14.492;2022-09-20T17:01:55;2.90;;;1.30;;
65469;SDS011;52067;50.710;14.492;2022-09-20T17:04:20;2.08;;;1.10;;
65469;SDS011;52067;50.710;14.492;2022-09-20T17:06:47;2.95;;;1.67;;
65469;SDS011;52067;50.710;14.492;2022-09-20T17:09:14;2.75;;;1.45;;
65469;SDS011;52067;50.710;14.492;2022-09-20T17:11:46;2.30;;;1.40;;
65469;SDS011;52067;50.710;14.492;2022-09-20T17:14:14;2.85;;;1.30;;
65469;SDS011;52067;50.710;14.492;2022-09-20T17:16:41;2.65;;;1.20;;
65469;SDS011;52067;50.710;14.492;2022-09-20T17:19:08;3.40;;;1.50;;
65469;SDS011;52067;50.710;14.492;2022-09-20T17:21:39;3.50;;;1.50;;
65469;SDS011;52067;50.710;14.492;2022-09-20T17:24:10;23.92;;;11.52;;
65469;SDS011;52067;50.710;14.492;2022-09-20T17:26:37;16.15;;;7.65;;
65469;SDS011;52067;50.710;14.492;2022-09-20T17:29:05;9.82;;;6.07;;
65469;SDS011;52067;50.710;14.492;2022-09-20T17:31:33;17.73;;;8.80;;
65469;SDS011;52067;50.710;14.492;2022-09-20T17:34:00;16.77;;;8.15;;
65469;SDS011;52067;50.710;14.492;2022-09-20T17:36:29;11.15;;;6.43;;
65469;SDS011;52067;50.710;14.492;2022-09-20T17:38:57;16.08;;;8.77;;
65469;SDS011;52067;50.710;14.492;2022-09-20T17:41:24;16.17;;;8.50;;
65469;SDS011;52067;50.710;14.492;2022-09-20T17:43:52;11.75;;;6.97;;
65469;SDS011;52067;50.710;14.492;2022-09-20T17:46:23;15.20;;;7.45;;
65469;SDS011;52067;50.710;14.492;2022-09-20T17:48:51;16.73;;;7.55;;
65469;SDS011;52067;50.710;14.492;2022-09-20T17:51:20;14.00;;;7.78;;
65469;SDS011;52067;50.710;14.492;2022-09-20T17:53:50;21.10;;;9.73;;
65469;SDS011;52067;50.710;14.492;2022-09-20T17:56:16;41.83;;;20.92;;
65469;SDS011;52067;50.710;14.492;2022-09-20T17:58:42;44.05;;;22.45;;
65469;SDS011;52067;50.710;14.492;2022-09-20T18:01:12;47.30;;;22.73;;
65469;SDS011;52067;50.710;14.492;2022-09-20T18:03:40;52.45;;;23.35;;
65469;SDS011;52067;50.710;14.492;2022-09-20T18:08:39;47.00;;;17.42;;
65469;SDS011;52067;50.710;14.492;2022-09-20T18:11:08;49.85;;;19.00;;
65469;SDS011;52067;50.710;14.492;2022-09-20T18:13:34;51.22;;;22.52;;
65469;SDS011;52067;50.710;14.492;2022-09-20T18:16:00;53.45;;;22.13;;
65469;SDS011;52067;50.710;14.492;2022-09-20T18:18:26;53.50;;;21.77;;
65469;SDS011;52067;50.710;14.492;2022-09-20T18:20:52;44.33;;;18.10;;
65469;SDS011;52067;50.710;14.492;2022-09-20T18:23:17;22.75;;;9.52;;
65469;SDS011;52067;50.710;14.492;2022-09-20T18:25:43;19.73;;;8.20;;
65469;SDS011;52067;50.710;14.492;2022-09-20T18:28:27;6.20;;;3.25;;
65469;SDS011;52067;50.710;14.492;2022-09-20T18:30:59;4.55;;;2.65;;
65469;SDS011;52067;50.710;14.492;2022-09-20T18:33:26;4.45;;;2.50;;
65469;SDS011;52067;50.710;14.492;2022-09-20T18:35:57;17.65;;;7.00;;
65469;SDS011;52067;50.710;14.492;2022-09-20T18:38:27;10.27;;;4.10;;
65469;SDS011;52067;50.710;14.492;2022-09-20T18:40:56;8.77;;;4.75;;
65469;SDS011;52067;50.710;14.492;2022-09-20T18:43:24;25.63;;;12.55;;
65469;SDS011;52067;50.710;14.492;2022-09-20T18:45:54;10.63;;;6.20;;
65469;SDS011;52067;50.710;14.492;2022-09-20T18:48:21;16.20;;;8.88;;
65469;SDS011;52067;50.710;14.492;2022-09-20T18:51:00;14.35;;;7.97;;
65469;SDS011;52067;50.710;14.492;2022-09-20T18:53:28;11.70;;;6.88;;
65469;SDS011;52067;50.710;14.492;2022-09-20T18:55:55;8.13;;;4.97;;
65469;SDS011;52067;50.710;14.492;2022-09-20T18:58:29;7.85;;;4.65;;
65469;SDS011;52067;50.710;14.492;2022-09-20T19:01:02;9.98;;;5.65;;
65469;SDS011;52067;50.710;14.492;2022-09-20T19:06:11;33.08;;;16.60;;
65469;SDS011;52067;50.710;14.492;2022-09-20T19:08:43;48.78;;;23.50;;
65469;SDS011;52067;50.710;14.492;2022-09-20T19:11:32;36.47;;;19.27;;
65469;SDS011;52067;50.710;14.492;2022-09-20T19:14:06;44.70;;;22.20;;
65469;SDS011;52067;50.710;14.492;2022-09-20T19:16:40;42.75;;;19.77;;
65469;SDS011;52067;50.710;14.492;2022-09-20T19:21:56;12.90;;;7.70;;
65469;SDS011;52067;50.710;14.492;2022-09-20T19:27:03;36.90;;;16.75;;
65469;SDS011;52067;50.710;14.492;2022-09-20T19:29:29;32.00;;;15.63;;
65469;SDS011;52067;50.710;14.492;2022-09-20T19:31:55;31.27;;;15.20;;
65469;SDS011;52067;50.710;14.492;2022-09-20T19:34:30;28.67;;;15.45;;
65469;SDS011;52067;50.710;14.492;2022-09-20T19:45:43;10.43;;;5.32;;
65469;SDS011;52067;50.710;14.492;2022-09-20T19:50:41;10.45;;;5.85;;
65469;SDS011;52067;50.710;14.492;2022-09-20T19:53:10;9.35;;;5.07;;
65469;SDS011;52067;50.710;14.492;2022-09-20T19:55:42;9.40;;;5.03;;
65469;SDS011;52067;50.710;14.492;2022-09-20T19:58:11;9.95;;;4.97;;
65469;SDS011;52067;50.710;14.492;2022-09-20T20:00:37;10.35;;;4.82;;
65469;SDS011;52067;50.710;14.492;2022-09-20T20:03:04;9.15;;;4.72;;
65469;SDS011;52067;50.710;14.492;2022-09-20T20:05:30;10.52;;;5.05;;
65469;SDS011;52067;50.710;14.492;2022-09-20T20:13:59;30.85;;;13.57;;
65469;SDS011;52067;50.710;14.492;2022-09-20T20:16:31;23.00;;;11.68;;
65469;SDS011;52067;50.710;14.492;2022-09-20T20:24:36;17.85;;;8.82;;
65469;SDS011;52067;50.710;14.492;2022-09-20T20:27:10;14.40;;;7.28;;
65469;SDS011;52067;50.710;14.492;2022-09-20T20:29:35;11.77;;;5.70;;
65469;SDS011;52067;50.710;14.492;2022-09-20T20:32:01;11.68;;;5.68;;
65469;SDS011;52067;50.710;14.492;2022-09-20T20:34:26;10.60;;;5.57;;
65469;SDS011;52067;50.710;14.492;2022-09-20T20:36:52;9.90;;;5.18;;